createdAt,value
2023-04-15T00:00:59.893Z,100577.59
2023-04-15T00:03:29.910Z,100569.16
2023-04-15T00:05:58.689Z,100569.91
2023-04-15T00:08:27.344Z,100561.31
2023-04-15T00:10:55.846Z,100573.53
2023-04-15T00:13:24.705Z,100560.63
2023-04-15T00:15:52.331Z,100578.03
2023-04-15T00:18:19.605Z,100564.16
2023-04-15T00:20:47.149Z,100562.53
2023-04-15T00:23:17.252Z,100563.59
2023-04-15T00:25:44.927Z,100560.84
2023-04-15T00:28:12.461Z,100568.75
2023-04-15T00:30:39.982Z,100566.22
2023-04-15T00:33:09.849Z,100560.22
2023-04-15T00:35:43.557Z,100565.56
2023-04-15T00:38:12.486Z,100570.88
2023-04-15T00:40:41.460Z,100571.81
2023-04-15T00:43:08.989Z,100570.09
2023-04-15T00:45:36.634Z,100565.88
2023-04-15T00:48:05.590Z,100572.94
2023-04-15T00:50:36.283Z,100570.38
2023-04-15T00:53:03.798Z,100577.44
2023-04-15T00:55:33.449Z,100574.09
2023-04-15T00:58:00.856Z,100582.13
2023-04-15T01:00:30.406Z,100569.28
2023-04-15T01:03:01.050Z,100573.66
2023-04-15T01:05:30.251Z,100572.03
2023-04-15T01:07:57.856Z,100577.41
2023-04-15T01:10:26.414Z,100569.78
2023-04-15T01:12:54.887Z,100575.97
2023-04-15T01:15:22.732Z,100580.56
2023-04-15T01:17:51.147Z,100572.03
2023-04-15T01:20:19.497Z,100573.16
2023-04-15T01:22:49.310Z,100572.38
2023-04-15T01:25:36.107Z,100580.25
2023-04-15T01:28:03.954Z,100577.09
2023-04-15T01:30:35.972Z,100576.41
2023-04-15T01:33:03.450Z,100568.72
2023-04-15T01:35:32.398Z,100574.06
2023-04-15T01:38:08.490Z,100570.72
2023-04-15T01:40:36.290Z,100563.03
2023-04-15T01:43:03.932Z,100570.16
2023-04-15T01:45:31.272Z,100570.28
2023-04-15T01:47:58.904Z,100573.78
2023-04-15T01:50:27.197Z,100569.72
2023-04-15T01:52:56.002Z,100568.91
2023-04-15T01:55:24.733Z,100568.91
2023-04-15T01:57:53.851Z,100576.03
2023-04-15T02:00:23.097Z,100572.53
2023-04-15T02:02:54.034Z,100572.59
2023-04-15T02:05:21.497Z,100576.16
2023-04-15T02:07:49.423Z,100568.34
2023-04-15T02:10:17.233Z,100573.69
2023-04-15T02:12:44.807Z,100576.31
2023-04-15T02:15:12.183Z,100571.22
2023-04-15T02:17:39.669Z,100574.84
2023-04-15T02:20:11.451Z,100573.25
2023-04-15T02:22:38.837Z,100577.66
2023-04-15T02:25:07.503Z,100572.50
2023-04-15T02:27:36.628Z,100571.75
2023-04-15T02:30:07.422Z,100572.72
2023-04-15T02:32:35.616Z,100582.22
2023-04-15T02:35:09.408Z,100593.53
2023-04-15T02:37:44.978Z,100587.56
2023-04-15T02:40:16.503Z,100594.53
2023-04-15T02:42:44.656Z,100599.88
2023-04-15T02:45:16.402Z,100591.31
2023-04-15T02:47:45.980Z,100590.63
2023-04-15T02:50:15.174Z,100595.13
2023-04-15T02:52:44.886Z,100599.53
2023-04-15T02:55:13.317Z,100603.13
2023-04-15T02:57:41.249Z,100611.00
2023-04-15T03:00:11.942Z,100606.69
2023-04-15T03:02:43.100Z,100593.91
2023-04-15T03:05:15.106Z,100610.41
2023-04-15T03:07:48.594Z,100614.03
2023-04-15T03:10:16.104Z,100604.50
2023-04-15T03:12:44.922Z,100608.09
2023-04-15T03:15:17.312Z,100602.09
2023-04-15T03:17:49.659Z,100607.44
2023-04-15T03:20:17.391Z,100615.34
2023-04-15T03:22:44.769Z,100609.31
2023-04-15T03:25:13.322Z,100624.09
2023-04-15T03:27:42.579Z,100614.63
2023-04-15T03:30:10.902Z,100614.75
2023-04-15T03:32:40.854Z,100615.00
2023-04-15T03:35:09.773Z,100614.09
2023-04-15T03:37:39.519Z,100617.59
2023-04-15T03:40:09.788Z,100622.75
2023-04-15T03:42:37.107Z,100616.78
2023-04-15T03:45:05.282Z,100621.09
2023-04-15T03:47:32.595Z,100624.56
2023-04-15T03:50:00.516Z,100624.56
2023-04-15T03:52:27.741Z,100630.63
2023-04-15T03:54:56.365Z,100634.06
2023-04-15T03:57:23.722Z,100636.59
2023-04-15T03:59:51.299Z,100641.81
2023-04-15T04:02:18.828Z,100643.56
2023-04-15T04:04:46.493Z,100643.56
2023-04-15T04:07:18.216Z,100653.91
2023-04-15T04:09:47.348Z,100656.63
2023-04-15T04:12:16.553Z,100653.97
2023-04-15T04:14:43.943Z,100662.63
2023-04-15T04:17:11.791Z,100659.25
2023-04-15T04:19:39.506Z,100671.34
2023-04-15T04:22:06.795Z,100667.03
2023-04-15T04:24:35.025Z,100672.25
2023-04-15T04:27:02.297Z,100688.75
2023-04-15T04:29:31.551Z,100681.00
2023-04-15T04:31:58.919Z,100684.53
2023-04-15T04:34:26.241Z,100686.31
2023-04-15T04:36:53.552Z,100689.03
2023-04-15T04:39:20.815Z,100696.00
2023-04-15T04:41:48.141Z,100692.63
2023-04-15T04:44:15.974Z,100699.56
2023-04-15T04:46:43.309Z,100704.00
2023-04-15T04:49:12.304Z,100704.00
2023-04-15T04:51:40.889Z,100709.25
2023-04-15T04:54:08.673Z,100707.59
2023-04-15T04:56:35.930Z,100705.06
2023-04-15T04:59:04.152Z,100714.56
2023-04-15T05:01:31.448Z,100725.81
2023-04-15T05:03:58.906Z,100727.50
2023-04-15T05:06:30.564Z,100731.94
2023-04-15T05:09:00.261Z,100737.91
2023-04-15T05:11:28.662Z,100745.78
2023-04-15T05:13:56.136Z,100745.59
2023-04-15T05:16:23.573Z,100747.22
2023-04-15T05:18:52.660Z,100752.41
2023-04-15T05:21:21.566Z,100752.25
2023-04-15T05:23:49.106Z,100760.81
2023-04-15T05:26:18.507Z,100764.84
2023-04-15T05:28:46.203Z,100765.19
2023-04-15T05:31:16.213Z,100772.41
2023-04-15T05:33:43.866Z,100771.19
2023-04-15T05:36:19.751Z,100784.66
2023-04-15T05:38:47.012Z,100781.06
2023-04-15T05:41:16.583Z,100781.75
2023-04-15T05:43:45.752Z,100790.88
2023-04-15T05:46:13.102Z,100795.25
2023-04-15T05:48:40.485Z,100797.13
2023-04-15T05:51:08.086Z,100802.53
2023-04-15T05:53:35.923Z,100800.94
2023-04-15T05:56:03.347Z,100802.75
2023-04-15T05:58:30.735Z,100815.78
2023-04-15T06:00:58.073Z,100804.63
2023-04-15T06:03:25.693Z,100810.63
2023-04-15T06:05:53.178Z,100816.63
2023-04-15T06:08:20.643Z,100813.06
2023-04-15T06:10:48.524Z,100820.00
2023-04-15T06:13:17.047Z,100827.59
2023-04-15T06:15:45.445Z,100837.88
2023-04-15T06:18:13.244Z,100843.03
2023-04-15T06:20:41.890Z,100842.91
2023-04-15T06:23:10.354Z,100849.06
2023-04-15T06:25:38.702Z,100861.97
2023-04-15T06:28:06.380Z,100866.25
2023-04-15T06:30:36.216Z,100867.84
2023-04-15T06:33:05.601Z,100876.38
2023-04-15T06:35:33.135Z,100872.81
2023-04-15T06:38:00.417Z,100876.88
2023-04-15T06:40:28.349Z,100885.13
2023-04-15T06:42:56.161Z,100891.69
2023-04-15T06:45:24.946Z,100906.72
2023-04-15T06:47:53.456Z,100893.44
2023-04-15T06:50:21.073Z,100895.53
2023-04-15T06:52:50.365Z,100890.53
2023-04-15T06:55:17.898Z,100900.25
2023-04-15T06:57:46.071Z,100915.56
2023-04-15T07:00:18.187Z,100909.16
2023-04-15T07:02:56.001Z,100919.44
2023-04-15T07:05:25.727Z,100926.56
2023-04-15T07:07:58.252Z,100926.94
2023-04-15T07:10:27.197Z,100919.28
2023-04-15T07:13:01.161Z,100926.63
2023-04-15T07:15:29.749Z,100933.81
2023-04-15T07:17:57.752Z,100939.22
2023-04-15T07:20:25.698Z,100943.09
2023-04-15T07:22:54.232Z,100953.88
2023-04-15T07:25:23.794Z,100954.41
2023-04-15T07:27:51.440Z,100956.56
2023-04-15T07:30:18.911Z,100961.81
2023-04-15T07:32:47.637Z,100963.28
2023-04-15T07:35:17.212Z,100966.13
2023-04-15T07:37:46.075Z,100973.53
2023-04-15T07:40:16.226Z,100964.41
2023-04-15T07:42:50.308Z,100976.94
2023-04-15T07:45:22.453Z,100983.22
2023-04-15T07:47:51.604Z,100984.63
2023-04-15T07:50:22.880Z,100981.66
2023-04-15T07:52:53.309Z,100983.88
2023-04-15T07:55:23.636Z,100991.03
2023-04-15T07:57:51.363Z,100999.94
2023-04-15T08:00:22.275Z,100997.31
2023-04-15T08:02:53.308Z,100994.69
2023-04-15T08:05:23.251Z,101007.31
2023-04-15T08:07:53.201Z,101009.44
2023-04-15T08:10:20.664Z,101014.94
2023-04-15T08:12:49.648Z,101017.81
2023-04-15T08:15:17.823Z,101020.44
2023-04-15T08:17:47.291Z,101015.53
2023-04-15T08:20:16.758Z,101011.63
2023-04-15T08:22:52.293Z,101028.38
2023-04-15T08:25:23.409Z,101028.81
2023-04-15T08:27:55.827Z,101033.22
2023-04-15T08:30:24.674Z,101046.19
2023-04-15T08:32:55.181Z,101036.97
2023-04-15T08:35:24.130Z,101037.06
2023-04-15T08:37:51.495Z,101048.38
2023-04-15T08:40:21.027Z,101049.88
2023-04-15T08:42:54.657Z,101063.31
2023-04-15T08:45:23.542Z,101055.03
2023-04-15T08:47:56.743Z,101061.75
2023-04-15T08:50:28.627Z,101063.94
2023-04-15T08:52:59.307Z,101071.94
2023-04-15T08:55:35.937Z,101061.69
2023-04-15T08:58:05.705Z,101079.66
2023-04-15T09:00:34.130Z,101078.88
2023-04-15T09:03:02.438Z,101076.25
2023-04-15T09:05:33.950Z,101084.34
2023-04-15T09:08:04.608Z,101084.53
2023-04-15T09:10:34.457Z,101095.78
2023-04-15T09:13:03.360Z,101092.03
2023-04-15T09:15:33.907Z,101099.00
2023-04-15T09:18:02.624Z,101102.34
2023-04-15T09:20:32.832Z,101111.53
2023-04-15T09:23:15.501Z,101096.94
2023-04-15T09:25:45.453Z,101104.59
2023-04-15T09:28:14.065Z,101111.31
2023-04-15T09:30:46.831Z,101110.75
2023-04-15T09:33:17.470Z,101112.84
2023-04-15T09:36:10.445Z,101128.56
2023-04-15T09:39:02.008Z,101119.16
2023-04-15T09:41:29.350Z,101133.25
2023-04-15T09:43:57.307Z,101130.00
2023-04-15T09:46:46.221Z,101140.88
2023-04-15T09:49:16.325Z,101143.81
2023-04-15T09:51:54.124Z,101147.63
2023-04-15T09:54:47.388Z,101151.25
2023-04-15T09:57:17.921Z,101152.13
2023-04-15T09:59:48.212Z,101151.53
2023-04-15T10:02:19.618Z,101165.03
2023-04-15T10:04:50.381Z,101150.56
2023-04-15T10:07:23.206Z,101153.31
2023-04-15T10:09:53.061Z,101155.91
2023-04-15T10:12:23.695Z,101168.00
2023-04-15T10:15:03.305Z,101166.63
2023-04-15T10:17:37.286Z,101157.53
2023-04-15T10:20:08.179Z,101173.13
2023-04-15T10:22:39.241Z,101173.41
2023-04-15T10:25:09.755Z,101162.97
2023-04-15T10:27:42.295Z,101160.41
2023-04-15T10:30:12.720Z,101166.66
2023-04-15T10:32:44.418Z,101164.97
2023-04-15T10:35:24.370Z,101158.75
2023-04-15T10:37:54.462Z,101167.25
2023-04-15T10:40:33.647Z,101180.41
2023-04-15T10:43:03.068Z,101181.59
2023-04-15T10:45:38.040Z,101171.66
2023-04-15T10:48:09.412Z,101179.47
2023-04-15T10:50:57.779Z,101175.28
2023-04-15T10:53:31.959Z,101174.53
2023-04-15T10:56:00.584Z,101184.44
2023-04-15T10:58:44.079Z,101181.47
2023-04-15T11:01:11.706Z,101173.94
2023-04-15T11:03:45.628Z,101184.34
2023-04-15T11:06:14.508Z,101193.81
2023-04-15T11:08:56.744Z,101187.66
2023-04-15T11:11:24.186Z,101181.81
2023-04-15T11:13:53.608Z,101192.38
2023-04-15T11:16:21.512Z,101194.03
2023-04-15T11:18:57.531Z,101192.38
2023-04-15T11:21:29.643Z,101189.91
2023-04-15T11:23:57.027Z,101199.03
2023-04-15T11:26:27.293Z,101199.94
2023-04-15T11:28:59.813Z,101209.25
2023-04-15T11:31:28.657Z,101212.25
2023-04-15T11:34:02.447Z,101209.13
2023-04-15T11:36:35.618Z,101219.78
2023-04-15T11:39:02.986Z,101209.63
2023-04-15T11:41:30.598Z,101210.63
2023-04-15T11:43:57.933Z,101203.72
2023-04-15T11:46:31.906Z,101207.88
2023-04-15T11:49:00.228Z,101220.91
2023-04-15T11:51:32.863Z,101230.03
2023-04-15T11:54:01.688Z,101226.78
2023-04-15T11:56:30.518Z,101221.28
2023-04-15T11:59:02.291Z,101220.00
2023-04-15T12:01:44.945Z,101222.25
2023-04-15T12:04:22.504Z,101222.06
2023-04-15T12:06:53.953Z,101219.88
2023-04-15T12:09:21.992Z,101223.34
2023-04-15T12:11:58.339Z,101221.22
2023-04-15T12:14:28.880Z,101224.72
2023-04-15T12:17:04.960Z,101230.00
2023-04-15T12:19:37.948Z,101256.28
2023-04-15T12:22:16.388Z,101240.94
2023-04-15T12:24:48.008Z,101249.13
2023-04-15T12:27:17.842Z,101247.69
2023-04-15T12:29:45.767Z,101268.56
2023-04-15T12:32:16.583Z,101252.25
2023-04-15T12:34:55.627Z,101260.34
2023-04-15T12:37:23.222Z,101267.22
2023-04-15T12:39:51.943Z,101281.00
2023-04-15T12:42:20.381Z,101263.03
2023-04-15T12:44:48.066Z,101267.97
2023-04-15T12:47:17.213Z,101287.16
2023-04-15T12:49:47.206Z,101276.81
2023-04-15T12:52:15.164Z,101285.56
2023-04-15T12:54:44.529Z,101289.03
2023-04-15T12:57:12.485Z,101290.25
2023-04-15T12:59:43.237Z,101277.78
2023-04-15T13:02:10.658Z,101300.94
2023-04-15T13:04:39.293Z,101301.94
2023-04-15T13:07:07.556Z,101299.47
2023-04-15T13:09:35.299Z,101302.59
2023-04-15T13:12:05.399Z,101305.38
2023-04-15T13:14:32.740Z,101306.38
2023-04-15T13:17:10.208Z,101302.09
2023-04-15T13:19:38.781Z,101312.38
2023-04-15T13:22:08.445Z,101310.81
2023-04-15T13:24:39.692Z,101313.59
2023-04-15T13:27:08.395Z,101308.31
2023-04-15T13:29:35.692Z,101307.97
2023-04-15T13:32:03.246Z,101330.22
2023-04-15T13:34:30.716Z,101332.59
2023-04-15T13:36:59.685Z,101330.88
2023-04-15T13:39:28.096Z,101336.66
2023-04-15T13:41:57.864Z,101325.50
2023-04-15T13:44:25.367Z,101335.66
2023-04-15T13:46:54.675Z,101330.53
2023-04-15T13:49:23.407Z,101349.34
2023-04-15T13:51:52.155Z,101346.81
2023-04-15T13:54:20.770Z,101347.19
2023-04-15T13:56:48.510Z,101357.69
2023-04-15T13:59:16.056Z,101375.63
2023-04-15T14:01:44.369Z,101366.53
2023-04-15T14:04:11.933Z,101379.91
2023-04-15T14:06:40.706Z,101363.75
2023-04-15T14:09:08.103Z,101377.19
2023-04-15T14:11:36.977Z,101371.47
2023-04-15T14:14:05.707Z,101387.84
2023-04-15T14:16:34.711Z,101383.09
2023-04-15T14:19:03.880Z,101383.66
2023-04-15T14:21:32.653Z,101384.28
2023-04-15T14:24:00.522Z,101392.16
2023-04-15T14:26:28.310Z,101409.19
2023-04-15T14:28:56.815Z,101394.38
2023-04-15T14:31:25.485Z,101397.47
2023-04-15T14:33:54.701Z,101400.53
2023-04-15T14:36:21.982Z,101407.91
2023-04-15T14:38:50.266Z,101421.44
2023-04-15T14:41:17.528Z,101414.41
2023-04-15T14:43:44.881Z,101413.78
2023-04-15T14:46:14.541Z,101425.44
2023-04-15T14:48:42.897Z,101434.00
2023-04-15T14:51:10.338Z,101431.22
2023-04-15T14:53:40.456Z,101423.47
2023-04-15T14:56:08.333Z,101438.84
2023-04-15T14:58:35.974Z,101438.94
2023-04-15T15:01:04.795Z,101447.19
2023-04-15T15:03:32.952Z,101456.91
2023-04-15T15:06:01.778Z,101458.25
2023-04-15T15:08:30.066Z,101465.06
2023-04-15T15:10:57.515Z,101467.81
2023-04-15T15:13:31.502Z,101466.97
2023-04-15T15:16:00.897Z,101466.44
2023-04-15T15:18:28.409Z,101476.47
2023-04-15T15:20:57.138Z,101464.50
2023-04-15T15:23:26.916Z,101472.66
2023-04-15T15:25:54.903Z,101488.06
2023-04-15T15:28:22.360Z,101493.97
2023-04-15T15:30:51.267Z,101478.91
2023-04-15T15:33:20.835Z,101498.84
2023-04-15T15:35:48.215Z,101495.22
2023-04-15T15:38:16.822Z,101496.38
2023-04-15T15:40:44.859Z,101488.44
2023-04-15T15:43:12.124Z,101515.88
2023-04-15T15:45:43.148Z,101498.78
2023-04-15T15:48:10.512Z,101518.94
2023-04-15T15:50:38.897Z,101506.91
2023-04-15T15:53:06.233Z,101525.19
2023-04-15T15:55:33.846Z,101516.91
2023-04-15T15:58:01.695Z,101525.16
2023-04-15T16:00:29.242Z,101520.94
2023-04-15T16:05:27.930Z,101540.44
2023-04-15T16:07:58.029Z,101543.84
2023-04-15T16:10:25.361Z,101565.63
2023-04-15T16:12:52.742Z,101544.72
2023-04-15T16:15:21.350Z,101547.41
2023-04-15T16:17:48.710Z,101547.03
2023-04-15T16:20:16.703Z,101556.03
2023-04-15T16:22:44.363Z,101572.25
2023-04-15T16:25:13.536Z,101565.28
2023-04-15T16:27:58.812Z,101576.19
2023-04-15T16:30:29.019Z,101570.28
2023-04-15T16:32:57.875Z,101583.47
2023-04-15T16:35:26.566Z,101581.03
2023-04-15T16:37:53.857Z,101583.19
2023-04-15T16:40:21.868Z,101593.88
2023-04-15T16:42:51.725Z,101593.72
2023-04-15T16:45:19.272Z,101599.09
2023-04-15T16:47:46.705Z,101602.72
2023-04-15T16:50:14.684Z,101631.75
2023-04-15T16:52:42.273Z,101597.81
2023-04-15T16:55:10.829Z,101609.31
2023-04-15T16:58:00.557Z,101613.91
2023-04-15T17:00:27.350Z,101623.53
2023-04-15T17:02:56.174Z,101617.19
2023-04-15T17:05:23.650Z,101613.09
2023-04-15T17:07:51.090Z,101611.72
2023-04-15T17:10:18.469Z,101617.00
2023-04-15T17:12:45.794Z,101619.81
2023-04-15T17:15:14.168Z,101626.06
2023-04-15T17:17:41.483Z,101620.03
2023-04-15T17:20:09.498Z,101628.75
2023-04-15T17:22:37.018Z,101630.53
2023-04-15T17:25:05.480Z,101626.31
2023-04-15T17:27:32.939Z,101635.13
2023-04-15T17:30:01.920Z,101635.28
2023-04-15T17:32:34.342Z,101631.94
2023-04-15T17:35:06.458Z,101638.91
2023-04-15T17:37:36.178Z,101642.31
2023-04-15T17:40:04.823Z,101643.25
2023-04-15T17:42:34.254Z,101648.66
2023-04-15T17:45:01.587Z,101656.53
2023-04-15T17:47:29.015Z,101659.31
2023-04-15T17:49:56.377Z,101655.19
2023-04-15T17:52:23.778Z,101656.41
2023-04-15T17:54:52.460Z,101656.63
2023-04-15T17:57:19.811Z,101661.88
2023-04-15T17:59:48.033Z,101666.44
2023-04-15T18:02:16.025Z,101675.19
2023-04-15T18:04:45.315Z,101671.78
2023-04-15T18:07:12.689Z,101686.75
2023-04-15T18:09:40.080Z,101678.44
2023-04-15T18:12:08.996Z,101701.25
2023-04-15T18:14:37.080Z,101697.00
2023-04-15T18:17:04.601Z,101688.53
2023-04-15T18:19:36.233Z,101699.16
2023-04-15T18:22:04.067Z,101697.38
2023-04-15T18:24:31.764Z,101706.25
2023-04-15T18:26:59.487Z,101688.91
2023-04-15T18:29:26.888Z,101704.63
2023-04-15T18:31:56.793Z,101702.06
2023-04-15T18:34:26.475Z,101707.47
2023-04-15T18:36:59.912Z,101709.28
2023-04-15T18:39:28.121Z,101713.69
2023-04-15T18:41:57.334Z,101719.94
2023-04-15T18:44:24.655Z,101736.66
2023-04-15T18:46:52.018Z,101728.28
2023-04-15T18:49:19.337Z,101734.56
2023-04-15T18:51:46.637Z,101746.69
2023-04-15T18:54:14.965Z,101739.84
2023-04-15T18:56:43.677Z,101755.72
2023-04-15T18:59:28.801Z,101751.63
2023-04-15T19:02:00.221Z,101773.72
2023-04-15T19:04:30.632Z,101755.75
2023-04-15T19:06:59.197Z,101781.19
2023-04-15T19:09:28.127Z,101764.13
2023-04-15T19:11:56.946Z,101764.31
2023-04-15T19:14:24.657Z,101749.75
2023-04-15T19:16:53.159Z,101774.97
2023-04-15T19:19:23.155Z,101775.13
2023-04-15T19:21:50.998Z,101783.94
2023-04-15T19:24:20.176Z,101789.19
2023-04-15T19:26:51.181Z,101796.28
2023-04-15T19:29:19.703Z,101794.69
2023-04-15T19:31:47.052Z,101802.47
2023-04-15T19:34:14.627Z,101791.19
2023-04-15T19:36:43.200Z,101789.59
2023-04-15T19:39:10.675Z,101805.16
2023-04-15T19:41:39.321Z,101814.78
2023-04-15T19:44:06.976Z,101802.84
2023-04-15T19:46:34.341Z,101803.75
2023-04-15T19:49:01.798Z,101812.50
2023-04-15T19:51:31.792Z,101805.66
2023-04-15T19:53:59.689Z,101810.84
2023-04-15T19:56:27.062Z,101817.84
2023-04-15T19:58:55.309Z,101806.63
2023-04-15T20:01:23.372Z,101811.00
2023-04-15T20:03:54.733Z,101810.94
2023-04-15T20:06:23.900Z,101811.84
2023-04-15T20:08:51.817Z,101804.88
2023-04-15T20:11:19.280Z,101812.66
2023-04-15T20:13:46.629Z,101826.41
2023-04-15T20:16:16.068Z,101825.47
2023-04-15T20:18:43.438Z,101824.63
2023-04-15T20:21:10.810Z,101818.53
2023-04-15T20:23:43.231Z,101828.28
2023-04-15T20:26:10.687Z,101820.47
2023-04-15T20:28:38.889Z,101815.31
2023-04-15T20:31:06.225Z,101825.00
2023-04-15T20:33:33.518Z,101830.22
2023-04-15T20:36:00.811Z,101821.56
2023-04-15T20:38:29.289Z,101827.56
2023-04-15T20:40:57.852Z,101819.78
2023-04-15T20:43:26.163Z,101822.41
2023-04-15T20:45:56.600Z,101825.00
2023-04-15T20:48:25.451Z,101823.22
2023-04-15T20:50:52.720Z,101824.16
2023-04-15T20:53:20.024Z,101825.16
2023-04-15T20:55:47.355Z,101832.91
2023-04-15T20:58:15.786Z,101832.94
2023-04-15T21:00:45.413Z,101819.94
2023-04-15T21:03:13.022Z,101825.78
2023-04-15T21:05:40.543Z,101831.88
2023-04-15T21:08:07.818Z,101825.88
2023-04-15T21:10:42.547Z,101829.25
2023-04-15T21:13:10.079Z,101843.22
2023-04-15T21:15:39.391Z,101839.69
2023-04-15T21:18:06.760Z,101843.16
2023-04-15T21:20:34.114Z,101844.84
2023-04-15T21:23:03.761Z,101844.75
2023-04-15T21:25:31.033Z,101837.00
2023-04-15T21:27:58.303Z,101851.69
2023-04-15T21:30:25.620Z,101846.38
2023-04-15T21:32:53.066Z,101853.28
2023-04-15T21:35:20.362Z,101852.25
2023-04-15T21:37:47.699Z,101848.72
2023-04-15T21:40:16.009Z,101846.13
2023-04-15T21:42:43.266Z,101846.19
2023-04-15T21:45:11.402Z,101847.06
2023-04-15T21:48:04.957Z,101828.88
2023-04-15T21:50:26.218Z,101841.84
2023-04-15T21:52:53.693Z,101850.56
2023-04-15T21:55:21.270Z,101853.97
2023-04-15T21:57:48.551Z,101853.03
2023-04-15T22:00:16.437Z,101869.59
2023-04-15T22:02:43.850Z,101863.38
2023-04-15T22:05:13.736Z,101868.53
2023-04-15T22:07:44.737Z,101872.06
2023-04-15T22:10:12.040Z,101870.31
2023-04-15T22:12:43.090Z,101870.34
2023-04-15T22:15:10.605Z,101886.69
2023-04-15T22:17:37.950Z,101875.34
2023-04-15T22:20:08.546Z,101882.41
2023-04-15T22:22:43.853Z,101877.25
2023-04-15T22:25:12.698Z,101873.88
2023-04-15T22:27:39.973Z,101878.19
2023-04-15T22:30:08.680Z,101881.75
2023-04-15T22:32:36.341Z,101874.78
2023-04-15T22:35:06.346Z,101880.81
2023-04-15T22:37:33.873Z,101887.75
2023-04-15T22:40:02.241Z,101886.84
2023-04-15T22:42:29.586Z,101891.94
2023-04-15T22:44:56.960Z,101894.59
2023-04-15T22:47:24.292Z,101892.88
2023-04-15T22:49:51.611Z,101891.19
2023-04-15T22:55:23.692Z,101899.78
2023-04-15T22:57:52.773Z,101903.22
2023-04-15T23:00:20.125Z,101902.34
2023-04-15T23:02:47.519Z,101903.25
2023-04-15T23:05:14.902Z,101909.34
2023-04-15T23:07:42.241Z,101904.16
2023-04-15T23:10:10.024Z,101917.16
2023-04-15T23:12:37.348Z,101915.34
2023-04-15T23:15:05.372Z,101913.66
2023-04-15T23:17:32.590Z,101913.69
2023-04-15T23:19:59.841Z,101917.22
2023-04-15T23:22:27.922Z,101919.91
2023-04-15T23:24:55.204Z,101925.06
2023-04-15T23:27:22.836Z,101920.69
2023-04-15T23:29:50.065Z,101923.38
2023-04-15T23:32:17.614Z,101920.75
2023-04-15T23:34:44.864Z,101923.38
2023-04-15T23:37:12.210Z,101927.66
2023-04-15T23:39:39.444Z,101927.72
2023-04-15T23:42:07.149Z,101939.03
2023-04-15T23:44:35.815Z,101926.88
2023-04-15T23:47:03.145Z,101939.78
2023-04-15T23:49:30.807Z,101930.28
2023-04-15T23:51:58.099Z,101932.13
2023-04-15T23:54:25.518Z,101933.03
2023-04-15T23:56:52.877Z,101937.44
2023-04-15T23:59:20.178Z,101936.63
